sensor_id;sensor_type;location;lat;lon;timestamp;pressure;altitude;pressure_sealevel;temperature;humidity
72370;BME280;60343;-32.030;115.880;2023-04-29T00:00:06;102754.78;;;12.65;68.14
72370;BME280;60343;-32.030;115.880;2023-04-29T00:02:40;102761.75;;;12.67;68.65
72370;BME280;60343;-32.030;115.880;2023-04-29T00:05:20;102755.50;;;12.67;70.49
72370;BME280;60343;-32.030;115.880;2023-04-29T00:07:55;102768.56;;;12.90;69.23
72370;BME280;60343;-32.030;115.880;2023-04-29T00:10:30;102765.88;;;12.90;68.94
72370;BME280;60343;-32.030;115.880;2023-04-29T00:13:06;102759.00;;;13.17;68.65
72370;BME280;60343;-32.030;115.880;2023-04-29T00:15:41;102757.84;;;13.29;67.27
72370;BME280;60343;-32.030;115.880;2023-04-29T00:18:15;102760.63;;;13.66;67.05
72370;BME280;60343;-32.030;115.880;2023-04-29T00:20:55;102757.69;;;14.06;65.80
72370;BME280;60343;-32.030;115.880;2023-04-29T00:23:32;102755.59;;;14.37;65.62
72370;BME280;60343;-32.030;115.880;2023-04-29T00:26:07;102757.31;;;14.38;64.97
72370;BME280;60343;-32.030;115.880;2023-04-29T00:28:42;102759.25;;;14.36;64.48
72370;BME280;60343;-32.030;115.880;2023-04-29T00:31:16;102753.50;;;14.58;63.73
72370;BME280;60343;-32.030;115.880;2023-04-29T00:33:53;102759.56;;;14.60;63.53
72370;BME280;60343;-32.030;115.880;2023-04-29T00:36:33;102758.94;;;14.48;63.91
72370;BME280;60343;-32.030;115.880;2023-04-29T00:39:08;102753.72;;;14.65;64.56
72370;BME280;60343;-32.030;115.880;2023-04-29T00:41:42;102756.94;;;14.95;63.15
72370;BME280;60343;-32.030;115.880;2023-04-29T00:44:18;102757.53;;;15.42;61.71
72370;BME280;60343;-32.030;115.880;2023-04-29T00:46:52;102747.94;;;15.92;59.88
72370;BME280;60343;-32.030;115.880;2023-04-29T00:49:27;102750.78;;;16.58;58.58
72370;BME280;60343;-32.030;115.880;2023-04-29T00:52:07;102744.16;;;17.51;56.21
72370;BME280;60343;-32.030;115.880;2023-04-29T00:54:44;102752.38;;;18.06;54.22
72370;BME280;60343;-32.030;115.880;2023-04-29T00:57:19;102755.06;;;18.53;52.09
72370;BME280;60343;-32.030;115.880;2023-04-29T00:59:55;102749.22;;;18.72;52.28
72370;BME280;60343;-32.030;115.880;2023-04-29T01:02:30;102742.72;;;18.81;51.40
72370;BME280;60343;-32.030;115.880;2023-04-29T01:05:05;102736.97;;;18.84;50.06
72370;BME280;60343;-32.030;115.880;2023-04-29T01:07:53;102736.22;;;19.13;50.72
72370;BME280;60343;-32.030;115.880;2023-04-29T01:10:34;102727.34;;;19.80;47.54
72370;BME280;60343;-32.030;115.880;2023-04-29T01:13:16;102734.66;;;20.38;45.50
72370;BME280;60343;-32.030;115.880;2023-04-29T01:15:57;102720.47;;;20.57;42.81
72370;BME280;60343;-32.030;115.880;2023-04-29T01:18:38;102723.94;;;20.87;45.55
72370;BME280;60343;-32.030;115.880;2023-04-29T01:21:14;102714.66;;;21.24;43.24
72370;BME280;60343;-32.030;115.880;2023-04-29T01:23:54;102718.16;;;21.39;45.20
72370;BME280;60343;-32.030;115.880;2023-04-29T01:26:30;102707.97;;;21.48;44.29
72370;BME280;60343;-32.030;115.880;2023-04-29T01:29:14;102709.84;;;21.47;42.47
72370;BME280;60343;-32.030;115.880;2023-04-29T01:32:00;102700.72;;;21.61;42.59
72370;BME280;60343;-32.030;115.880;2023-04-29T01:34:43;102706.44;;;21.73;42.83
72370;BME280;60343;-32.030;115.880;2023-04-29T01:37:25;102689.88;;;22.02;41.06
72370;BME280;60343;-32.030;115.880;2023-04-29T01:40:11;102691.91;;;22.28;39.00
72370;BME280;60343;-32.030;115.880;2023-04-29T01:42:58;102681.13;;;22.20;39.52
72370;BME280;60343;-32.030;115.880;2023-04-29T01:45:38;102683.72;;;22.35;38.76
72370;BME280;60343;-32.030;115.880;2023-04-29T01:48:14;102681.66;;;22.50;37.23
72370;BME280;60343;-32.030;115.880;2023-04-29T01:50:48;102687.84;;;22.72;38.32
72370;BME280;60343;-32.030;115.880;2023-04-29T01:53:23;102684.03;;;22.66;38.86
72370;BME280;60343;-32.030;115.880;2023-04-29T01:56:03;102685.97;;;22.85;37.68
72370;BME280;60343;-32.030;115.880;2023-04-29T01:58:38;102681.81;;;23.02;38.30
72370;BME280;60343;-32.030;115.880;2023-04-29T02:01:13;102674.25;;;23.18;38.46
72370;BME280;60343;-32.030;115.880;2023-04-29T02:03:47;102666.88;;;23.31;37.14
72370;BME280;60343;-32.030;115.880;2023-04-29T02:06:22;102667.09;;;23.03;38.33
72370;BME280;60343;-32.030;115.880;2023-04-29T02:09:01;102663.72;;;23.41;37.79
72370;BME280;60343;-32.030;115.880;2023-04-29T02:11:43;102663.25;;;23.70;36.28
72370;BME280;60343;-32.030;115.880;2023-04-29T02:14:17;102658.88;;;23.63;35.95
72370;BME280;60343;-32.030;115.880;2023-04-29T02:16:51;102653.84;;;23.46;35.26
72370;BME280;60343;-32.030;115.880;2023-04-29T02:19:26;102646.06;;;23.30;36.70
72370;BME280;60343;-32.030;115.880;2023-04-29T02:22:01;102642.28;;;23.25;36.09
72370;BME280;60343;-32.030;115.880;2023-04-29T02:24:35;102635.97;;;23.31;35.88
72370;BME280;60343;-32.030;115.880;2023-04-29T02:27:15;102633.88;;;23.20;37.82
72370;BME280;60343;-32.030;115.880;2023-04-29T02:29:50;102633.00;;;23.39;38.18
72370;BME280;60343;-32.030;115.880;2023-04-29T02:32:24;102622.50;;;23.56;35.57
72370;BME280;60343;-32.030;115.880;2023-04-29T02:34:59;102614.47;;;23.74;36.74
72370;BME280;60343;-32.030;115.880;2023-04-29T02:37:34;102609.47;;;23.38;35.85
72370;BME280;60343;-32.030;115.880;2023-04-29T02:40:09;102604.00;;;23.31;36.35
72370;BME280;60343;-32.030;115.880;2023-04-29T02:42:49;102599.41;;;23.19;35.28
72370;BME280;60343;-32.030;115.880;2023-04-29T02:45:24;102600.03;;;23.21;35.43
72370;BME280;60343;-32.030;115.880;2023-04-29T02:47:58;102596.06;;;22.77;35.73
72370;BME280;60343;-32.030;115.880;2023-04-29T02:50:33;102593.28;;;22.51;36.37
72370;BME280;60343;-32.030;115.880;2023-04-29T02:53:07;102588.84;;;22.37;36.44
72370;BME280;60343;-32.030;115.880;2023-04-29T02:55:42;102583.13;;;22.25;37.58
72370;BME280;60343;-32.030;115.880;2023-04-29T03:04:43;102571.84;;;21.80;37.78
72370;BME280;60343;-32.030;115.880;2023-04-29T03:07:18;102568.75;;;21.90;36.04
72370;BME280;60343;-32.030;115.880;2023-04-29T03:09:54;102563.78;;;22.00;35.68
72370;BME280;60343;-32.030;115.880;2023-04-29T03:12:29;102566.06;;;22.03;36.85
72370;BME280;60343;-32.030;115.880;2023-04-29T03:15:03;102561.06;;;22.07;35.79
72370;BME280;60343;-32.030;115.880;2023-04-29T03:17:38;102555.88;;;22.32;35.14
72370;BME280;60343;-32.030;115.880;2023-04-29T03:20:18;102548.50;;;22.12;34.97
72370;BME280;60343;-32.030;115.880;2023-04-29T03:22:53;102541.34;;;22.11;36.60
72370;BME280;60343;-32.030;115.880;2023-04-29T03:25:27;102535.94;;;22.44;35.03
72370;BME280;60343;-32.030;115.880;2023-04-29T03:28:03;102533.66;;;22.67;35.31
72370;BME280;60343;-32.030;115.880;2023-04-29T03:30:38;102520.81;;;22.94;33.86
72370;BME280;60343;-32.030;115.880;2023-04-29T03:33:12;102517.44;;;23.12;35.31
72370;BME280;60343;-32.030;115.880;2023-04-29T03:35:52;102506.47;;;23.32;35.65
72370;BME280;60343;-32.030;115.880;2023-04-29T03:38:27;102497.22;;;23.20;34.40
72370;BME280;60343;-32.030;115.880;2023-04-29T03:41:01;102490.06;;;23.25;33.72
72370;BME280;60343;-32.030;115.880;2023-04-29T03:43:36;102496.03;;;22.89;32.94
72370;BME280;60343;-32.030;115.880;2023-04-29T03:46:11;102488.09;;;22.75;35.37
72370;BME280;60343;-32.030;115.880;2023-04-29T03:48:45;102490.38;;;22.64;34.31
72370;BME280;60343;-32.030;115.880;2023-04-29T03:51:28;102485.78;;;22.52;33.95
72370;BME280;60343;-32.030;115.880;2023-04-29T03:54:02;102477.16;;;22.29;35.99
72370;BME280;60343;-32.030;115.880;2023-04-29T03:56:37;102470.84;;;22.35;36.54
72370;BME280;60343;-32.030;115.880;2023-04-29T03:59:11;102473.41;;;22.43;35.19
72370;BME280;60343;-32.030;115.880;2023-04-29T04:01:57;102467.50;;;22.33;34.76
72370;BME280;60343;-32.030;115.880;2023-04-29T04:04:33;102468.34;;;22.20;35.59
72370;BME280;60343;-32.030;115.880;2023-04-29T04:07:13;102460.75;;;22.48;34.35
72370;BME280;60343;-32.030;115.880;2023-04-29T04:09:47;102452.00;;;22.33;34.26
72370;BME280;60343;-32.030;115.880;2023-04-29T04:12:22;102445.25;;;22.22;35.51
72370;BME280;60343;-32.030;115.880;2023-04-29T04:14:56;102441.03;;;22.13;36.52
72370;BME280;60343;-32.030;115.880;2023-04-29T04:17:31;102442.75;;;22.21;34.48
72370;BME280;60343;-32.030;115.880;2023-04-29T04:20:06;102440.19;;;22.00;35.64
72370;BME280;60343;-32.030;115.880;2023-04-29T04:22:46;102427.19;;;22.08;35.80
72370;BME280;60343;-32.030;115.880;2023-04-29T04:25:21;102421.56;;;22.23;34.48
72370;BME280;60343;-32.030;115.880;2023-04-29T04:27:56;102416.06;;;22.30;35.13
72370;BME280;60343;-32.030;115.880;2023-04-29T04:30:31;102403.69;;;22.34;36.60
72370;BME280;60343;-32.030;115.880;2023-04-29T04:33:05;102392.78;;;22.40;35.64
72370;BME280;60343;-32.030;115.880;2023-04-29T04:35:41;102383.34;;;22.43;35.50
72370;BME280;60343;-32.030;115.880;2023-04-29T04:38:21;102385.44;;;22.21;35.78
72370;BME280;60343;-32.030;115.880;2023-04-29T04:40:56;102374.72;;;22.26;34.64
72370;BME280;60343;-32.030;115.880;2023-04-29T04:43:30;102383.97;;;22.32;36.41
72370;BME280;60343;-32.030;115.880;2023-04-29T04:46:15;102372.59;;;22.54;35.42
72370;BME280;60343;-32.030;115.880;2023-04-29T04:48:50;102361.84;;;22.59;34.58
72370;BME280;60343;-32.030;115.880;2023-04-29T04:51:24;102375.53;;;22.73;34.42
72370;BME280;60343;-32.030;115.880;2023-04-29T04:54:04;102367.72;;;22.83;34.07
72370;BME280;60343;-32.030;115.880;2023-04-29T04:56:38;102355.31;;;22.80;33.56
72370;BME280;60343;-32.030;115.880;2023-04-29T04:59:14;102351.38;;;22.56;34.25
72370;BME280;60343;-32.030;115.880;2023-04-29T05:04:22;102330.31;;;22.70;34.78
72370;BME280;60343;-32.030;115.880;2023-04-29T05:06:56;102320.91;;;22.66;35.19
72370;BME280;60343;-32.030;115.880;2023-04-29T05:09:37;102317.56;;;22.57;35.20
72370;BME280;60343;-32.030;115.880;2023-04-29T05:12:11;102308.13;;;22.53;35.58
72370;BME280;60343;-32.030;115.880;2023-04-29T05:14:45;102298.66;;;22.62;35.35
72370;BME280;60343;-32.030;115.880;2023-04-29T05:17:20;102298.81;;;22.81;35.41
72370;BME280;60343;-32.030;115.880;2023-04-29T05:19:54;102286.41;;;22.85;35.90
72370;BME280;60343;-32.030;115.880;2023-04-29T05:22:29;102288.72;;;22.88;35.54
72370;BME280;60343;-32.030;115.880;2023-04-29T05:25:09;102283.94;;;22.77;35.68
72370;BME280;60343;-32.030;115.880;2023-04-29T05:27:44;102282.91;;;22.71;33.95
72370;BME280;60343;-32.030;115.880;2023-04-29T05:30:20;102287.69;;;22.82;34.44
72370;BME280;60343;-32.030;115.880;2023-04-29T05:32:54;102275.44;;;22.98;33.84
72370;BME280;60343;-32.030;115.880;2023-04-29T05:35:28;102275.31;;;23.18;33.18
72370;BME280;60343;-32.030;115.880;2023-04-29T05:38:03;102270.97;;;23.03;33.79
72370;BME280;60343;-32.030;115.880;2023-04-29T05:40:43;102269.50;;;23.01;34.19
72370;BME280;60343;-32.030;115.880;2023-04-29T05:43:19;102262.94;;;23.46;34.14
72370;BME280;60343;-32.030;115.880;2023-04-29T05:45:54;102263.31;;;23.75;33.36
72370;BME280;60343;-32.030;115.880;2023-04-29T05:48:28;102246.66;;;23.58;33.08
72370;BME280;60343;-32.030;115.880;2023-04-29T05:51:03;102253.56;;;22.98;35.11
72370;BME280;60343;-32.030;115.880;2023-04-29T05:53:37;102249.81;;;22.92;34.79
72370;BME280;60343;-32.030;115.880;2023-04-29T05:56:17;102236.38;;;23.22;32.59
72370;BME280;60343;-32.030;115.880;2023-04-29T05:58:52;102231.47;;;23.31;33.38
72370;BME280;60343;-32.030;115.880;2023-04-29T06:01:52;102235.28;;;22.98;34.34
72370;BME280;60343;-32.030;115.880;2023-04-29T06:04:27;102221.00;;;23.28;32.96
72370;BME280;60343;-32.030;115.880;2023-04-29T06:07:01;102219.47;;;23.07;34.76
72370;BME280;60343;-32.030;115.880;2023-04-29T06:09:36;102228.84;;;23.18;35.74
72370;BME280;60343;-32.030;115.880;2023-04-29T06:12:11;102219.34;;;23.76;33.79
72370;BME280;60343;-32.030;115.880;2023-04-29T06:14:45;102217.28;;;23.16;35.09
72370;BME280;60343;-32.030;115.880;2023-04-29T06:17:25;102206.72;;;23.26;34.55
72370;BME280;60343;-32.030;115.880;2023-04-29T06:20:01;102213.50;;;23.48;34.92
72370;BME280;60343;-32.030;115.880;2023-04-29T06:22:35;102210.50;;;23.74;35.34
72370;BME280;60343;-32.030;115.880;2023-04-29T06:25:10;102213.59;;;24.57;32.26
72370;BME280;60343;-32.030;115.880;2023-04-29T06:27:44;102203.56;;;23.97;34.52
72370;BME280;60343;-32.030;115.880;2023-04-29T06:30:19;102202.72;;;23.78;34.89
72370;BME280;60343;-32.030;115.880;2023-04-29T06:32:59;102196.78;;;23.81;34.56
72370;BME280;60343;-32.030;115.880;2023-04-29T06:35:35;102187.56;;;23.57;37.67
72370;BME280;60343;-32.030;115.880;2023-04-29T06:38:12;102197.28;;;23.53;38.70
72370;BME280;60343;-32.030;115.880;2023-04-29T06:40:46;102196.41;;;23.28;39.51
72370;BME280;60343;-32.030;115.880;2023-04-29T06:43:21;102191.97;;;23.58;39.72
72370;BME280;60343;-32.030;115.880;2023-04-29T06:45:55;102194.22;;;23.36;39.70
72370;BME280;60343;-32.030;115.880;2023-04-29T06:48:35;102184.28;;;23.17;40.32
72370;BME280;60343;-32.030;115.880;2023-04-29T06:51:09;102188.97;;;23.10;40.11
72370;BME280;60343;-32.030;115.880;2023-04-29T06:53:44;102193.34;;;23.18;40.82
72370;BME280;60343;-32.030;115.880;2023-04-29T06:56:19;102198.38;;;23.14;39.98
72370;BME280;60343;-32.030;115.880;2023-04-29T06:58:53;102193.75;;;23.15;39.49
72370;BME280;60343;-32.030;115.880;2023-04-29T07:01:28;102195.50;;;22.78;40.94
72370;BME280;60343;-32.030;115.880;2023-04-29T07:04:08;102193.25;;;22.99;40.05
72370;BME280;60343;-32.030;115.880;2023-04-29T07:06:42;102195.53;;;23.02;39.60
72370;BME280;60343;-32.030;115.880;2023-04-29T07:09:20;102183.94;;;23.07;40.30
72370;BME280;60343;-32.030;115.880;2023-04-29T07:11:55;102197.44;;;23.02;39.61
72370;BME280;60343;-32.030;115.880;2023-04-29T07:14:30;102195.78;;;22.94;39.97
72370;BME280;60343;-32.030;115.880;2023-04-29T07:17:05;102191.41;;;22.93;39.72
72370;BME280;60343;-32.030;115.880;2023-04-29T07:19:45;102185.06;;;22.55;41.15
72370;BME280;60343;-32.030;115.880;2023-04-29T07:22:20;102177.00;;;22.35;42.06
72370;BME280;60343;-32.030;115.880;2023-04-29T07:24:55;102185.94;;;21.91;43.12
72370;BME280;60343;-32.030;115.880;2023-04-29T07:27:29;102179.03;;;21.95;42.55
72370;BME280;60343;-32.030;115.880;2023-04-29T07:30:06;102184.69;;;21.87;43.02
72370;BME280;60343;-32.030;115.880;2023-04-29T07:32:40;102184.69;;;21.87;43.66
72370;BME280;60343;-32.030;115.880;2023-04-29T07:35:20;102179.88;;;21.69;43.85
72370;BME280;60343;-32.030;115.880;2023-04-29T07:37:55;102187.69;;;21.46;44.71
72370;BME280;60343;-32.030;115.880;2023-04-29T07:40:29;102186.22;;;21.57;44.51
72370;BME280;60343;-32.030;115.880;2023-04-29T07:43:04;102186.19;;;21.11;46.05
72370;BME280;60343;-32.030;115.880;2023-04-29T07:45:39;102187.47;;;21.48;45.59
72370;BME280;60343;-32.030;115.880;2023-04-29T07:48:13;102187.88;;;21.25;46.10
72370;BME280;60343;-32.030;115.880;2023-04-29T07:50:53;102188.94;;;21.44;45.78
72370;BME280;60343;-32.030;115.880;2023-04-29T07:53:28;102183.06;;;21.20;46.63
72370;BME280;60343;-32.030;115.880;2023-04-29T07:56:06;102180.75;;;21.24;46.45
72370;BME280;60343;-32.030;115.880;2023-04-29T07:58:40;102178.00;;;21.11;46.51
72370;BME280;60343;-32.030;115.880;2023-04-29T08:01:15;102178.41;;;21.01;46.57
72370;BME280;60343;-32.030;115.880;2023-04-29T08:03:49;102176.31;;;20.96;47.01
72370;BME280;60343;-32.030;115.880;2023-04-29T08:06:29;102174.00;;;20.93;47.57
72370;BME280;60343;-32.030;115.880;2023-04-29T08:09:05;102163.09;;;20.80;48.00
72370;BME280;60343;-32.030;115.880;2023-04-29T08:11:39;102166.84;;;20.73;48.14
72370;BME280;60343;-32.030;115.880;2023-04-29T08:14:14;102166.19;;;20.64;48.40
72370;BME280;60343;-32.030;115.880;2023-04-29T08:16:48;102160.78;;;20.71;48.29
72370;BME280;60343;-32.030;115.880;2023-04-29T08:19:22;102166.97;;;20.45;48.29
72370;BME280;60343;-32.030;115.880;2023-04-29T08:22:03;102167.22;;;20.57;48.44
72370;BME280;60343;-32.030;115.880;2023-04-29T08:24:38;102163.00;;;20.41;48.78
72370;BME280;60343;-32.030;115.880;2023-04-29T08:27:16;102162.97;;;20.34;49.34
72370;BME280;60343;-32.030;115.880;2023-04-29T08:29:50;102166.88;;;20.25;48.73
72370;BME280;60343;-32.030;115.880;2023-04-29T08:32:25;102162.78;;;20.36;48.59
72370;BME280;60343;-32.030;115.880;2023-04-29T08:35:00;102158.53;;;20.27;48.46
72370;BME280;60343;-32.030;115.880;2023-04-29T08:37:40;102151.16;;;20.21;49.01
72370;BME280;60343;-32.030;115.880;2023-04-29T08:40:15;102160.16;;;20.21;49.33
72370;BME280;60343;-32.030;115.880;2023-04-29T08:42:49;102151.38;;;20.19;49.21
72370;BME280;60343;-32.030;115.880;2023-04-29T08:45:25;102155.91;;;20.12;49.12
72370;BME280;60343;-32.030;115.880;2023-04-29T08:48:01;102152.97;;;20.00;49.49
72370;BME280;60343;-32.030;115.880;2023-04-29T08:50:39;102163.59;;;20.02;49.62
72370;BME280;60343;-32.030;115.880;2023-04-29T08:53:21;102161.53;;;20.04;49.60
72370;BME280;60343;-32.030;115.880;2023-04-29T08:55:58;102159.84;;;20.03;49.83
72370;BME280;60343;-32.030;115.880;2023-04-29T08:58:36;102160.88;;;19.95;49.79
72370;BME280;60343;-32.030;115.880;2023-04-29T09:01:13;102155.13;;;19.77;50.00
72370;BME280;60343;-32.030;115.880;2023-04-29T09:03:52;102166.94;;;19.63;50.97
72370;BME280;60343;-32.030;115.880;2023-04-29T09:06:27;102161.25;;;19.51;51.00
72370;BME280;60343;-32.030;115.880;2023-04-29T09:09:09;102154.31;;;19.49;51.33
72370;BME280;60343;-32.030;115.880;2023-04-29T09:11:45;102166.47;;;19.32;51.56
72370;BME280;60343;-32.030;115.880;2023-04-29T09:14:20;102159.31;;;19.24;52.21
72370;BME280;60343;-32.030;115.880;2023-04-29T09:16:56;102150.50;;;19.22;52.21
72370;BME280;60343;-32.030;115.880;2023-04-29T09:19:31;102150.00;;;19.12;52.59
72370;BME280;60343;-32.030;115.880;2023-04-29T09:22:06;102158.38;;;19.10;52.36
72370;BME280;60343;-32.030;115.880;2023-04-29T09:24:46;102156.09;;;18.93;53.24
72370;BME280;60343;-32.030;115.880;2023-04-29T09:27:27;102151.97;;;18.75;53.76
72370;BME280;60343;-32.030;115.880;2023-04-29T09:30:02;102158.44;;;18.74;53.42
72370;BME280;60343;-32.030;115.880;2023-04-29T09:32:36;102165.91;;;18.72;53.70
72370;BME280;60343;-32.030;115.880;2023-04-29T09:35:24;102175.22;;;18.63;53.97
72370;BME280;60343;-32.030;115.880;2023-04-29T09:38:09;102173.09;;;18.59;54.26
72370;BME280;60343;-32.030;115.880;2023-04-29T09:40:51;102173.44;;;18.41;54.64
72370;BME280;60343;-32.030;115.880;2023-04-29T09:43:26;102176.47;;;18.31;55.19
72370;BME280;60343;-32.030;115.880;2023-04-29T09:46:01;102171.06;;;18.17;55.81
72370;BME280;60343;-32.030;115.880;2023-04-29T09:48:35;102176.16;;;17.90;56.37
72370;BME280;60343;-32.030;115.880;2023-04-29T09:51:10;102166.63;;;17.94;56.34
72370;BME280;60343;-32.030;115.880;2023-04-29T09:53:44;102174.81;;;17.86;56.67
72370;BME280;60343;-32.030;115.880;2023-04-29T09:56:24;102178.88;;;17.90;56.76
72370;BME280;60343;-32.030;115.880;2023-04-29T09:59:07;102175.50;;;17.74;57.25
72370;BME280;60343;-32.030;115.880;2023-04-29T10:01:42;102170.97;;;17.66;57.34
72370;BME280;60343;-32.030;115.880;2023-04-29T10:04:18;102173.28;;;17.54;57.95
72370;BME280;60343;-32.030;115.880;2023-04-29T10:06:54;102176.59;;;17.27;59.31
72370;BME280;60343;-32.030;115.880;2023-04-29T10:09:29;102177.22;;;17.14;59.14
72370;BME280;60343;-32.030;115.880;2023-04-29T10:12:10;102187.06;;;17.07;59.45
72370;BME280;60343;-32.030;115.880;2023-04-29T10:14:52;102179.56;;;16.95;60.35
72370;BME280;60343;-32.030;115.880;2023-04-29T10:17:35;102179.78;;;16.85;60.68
72370;BME280;60343;-32.030;115.880;2023-04-29T10:20:13;102180.63;;;16.86;61.10
72370;BME280;60343;-32.030;115.880;2023-04-29T10:22:50;102176.38;;;16.68;61.62
72370;BME280;60343;-32.030;115.880;2023-04-29T10:25:26;102183.69;;;16.52;62.76
72370;BME280;60343;-32.030;115.880;2023-04-29T10:28:09;102183.06;;;16.42;62.44
72370;BME280;60343;-32.030;115.880;2023-04-29T10:30:50;102191.94;;;16.27;62.96
72370;BME280;60343;-32.030;115.880;2023-04-29T10:33:25;102188.44;;;16.19;63.18
72370;BME280;60343;-32.030;115.880;2023-04-29T10:36:01;102197.25;;;16.13;63.69
72370;BME280;60343;-32.030;115.880;2023-04-29T10:38:39;102194.06;;;16.09;64.18
72370;BME280;60343;-32.030;115.880;2023-04-29T10:41:20;102197.44;;;16.03;64.16
72370;BME280;60343;-32.030;115.880;2023-04-29T10:44:01;102193.59;;;15.89;64.98
72370;BME280;60343;-32.030;115.880;2023-04-29T10:46:37;102189.91;;;15.82;64.83
72370;BME280;60343;-32.030;115.880;2023-04-29T10:49:11;102196.34;;;15.73;65.14
72370;BME280;60343;-32.030;115.880;2023-04-29T10:51:46;102186.22;;;15.67;65.48
72370;BME280;60343;-32.030;115.880;2023-04-29T10:54:20;102185.41;;;15.59;65.94
72370;BME280;60343;-32.030;115.880;2023-04-29T10:56:55;102180.97;;;15.50;66.29
72370;BME280;60343;-32.030;115.880;2023-04-29T10:59:52;102179.00;;;15.43;66.43
72370;BME280;60343;-32.030;115.880;2023-04-29T11:02:26;102183.03;;;15.48;67.42
72370;BME280;60343;-32.030;115.880;2023-04-29T11:05:08;102180.31;;;15.39;67.30
72370;BME280;60343;-32.030;115.880;2023-04-29T11:07:46;102178.31;;;15.33;67.71
72370;BME280;60343;-32.030;115.880;2023-04-29T11:10:20;102185.75;;;15.23;68.04
72370;BME280;60343;-32.030;115.880;2023-04-29T11:13:21;102181.34;;;15.14;67.82
72370;BME280;60343;-32.030;115.880;2023-04-29T11:16:03;102181.84;;;15.01;68.32
72370;BME280;60343;-32.030;115.880;2023-04-29T11:19:04;102184.72;;;14.92;68.56
72370;BME280;60343;-32.030;115.880;2023-04-29T11:21:39;102184.03;;;14.82;68.91
72370;BME280;60343;-32.030;115.880;2023-04-29T11:24:13;102189.75;;;14.71;68.89
72370;BME280;60343;-32.030;115.880;2023-04-29T11:26:48;102188.19;;;14.60;69.73
72370;BME280;60343;-32.030;115.880;2023-04-29T11:29:26;102187.69;;;14.56;69.48
72370;BME280;60343;-32.030;115.880;2023-04-29T11:32:07;102181.09;;;14.51;70.08
72370;BME280;60343;-32.030;115.880;2023-04-29T11:34:42;102185.63;;;14.42;69.89
72370;BME280;60343;-32.030;115.880;2023-04-29T11:37:21;102176.81;;;14.32;70.76
72370;BME280;60343;-32.030;115.880;2023-04-29T11:40:00;102187.22;;;14.27;70.60
72370;BME280;60343;-32.030;115.880;2023-04-29T11:42:35;102177.81;;;14.31;71.17
72370;BME280;60343;-32.030;115.880;2023-04-29T11:45:10;102178.09;;;14.20;71.38
72370;BME280;60343;-32.030;115.880;2023-04-29T11:47:50;102175.06;;;14.15;71.22
72370;BME280;60343;-32.030;115.880;2023-04-29T11:50:24;102178.09;;;14.12;71.57
72370;BME280;60343;-32.030;115.880;2023-04-29T11:53:00;102175.69;;;14.09;72.42
72370;BME280;60343;-32.030;115.880;2023-04-29T11:55:35;102168.44;;;14.01;72.48
72370;BME280;60343;-32.030;115.880;2023-04-29T11:58:10;102170.25;;;13.93;73.41
72370;BME280;60343;-32.030;115.880;2023-04-29T12:00:44;102169.34;;;13.84;73.28
72370;BME280;60343;-32.030;115.880;2023-04-29T12:03:25;102170.66;;;13.72;74.17
72370;BME280;60343;-32.030;115.880;2023-04-29T12:06:01;102174.81;;;13.66;73.46
72370;BME280;60343;-32.030;115.880;2023-04-29T12:08:36;102170.44;;;13.65;73.93
72370;BME280;60343;-32.030;115.880;2023-04-29T12:11:12;102172.06;;;13.58;74.27
72370;BME280;60343;-32.030;115.880;2023-04-29T12:13:46;102170.91;;;13.61;74.22
72370;BME280;60343;-32.030;115.880;2023-04-29T12:16:21;102166.16;;;13.55;74.96
72370;BME280;60343;-32.030;115.880;2023-04-29T12:19:02;102163.94;;;13.50;74.81
72370;BME280;60343;-32.030;115.880;2023-04-29T12:21:37;102156.69;;;13.43;75.56
72370;BME280;60343;-32.030;115.880;2023-04-29T12:24:21;102160.16;;;13.35;75.10
72370;BME280;60343;-32.030;115.880;2023-04-29T12:26:56;102157.19;;;13.20;75.77
72370;BME280;60343;-32.030;115.880;2023-04-29T12:29:32;102149.06;;;13.12;75.64
72370;BME280;60343;-32.030;115.880;2023-04-29T12:32:07;102152.16;;;13.08;75.66
72370;BME280;60343;-32.030;115.880;2023-04-29T12:34:52;102147.44;;;13.02;76.28
72370;BME280;60343;-32.030;115.880;2023-04-29T12:37:28;102143.19;;;12.99;76.46
72370;BME280;60343;-32.030;115.880;2023-04-29T12:40:03;102146.25;;;13.04;76.25
72370;BME280;60343;-32.030;115.880;2023-04-29T12:42:39;102151.88;;;12.93;77.20
72370;BME280;60343;-32.030;115.880;2023-04-29T12:45:27;102148.97;;;12.86;77.79
72370;BME280;60343;-32.030;115.880;2023-04-29T12:48:02;102151.28;;;12.81;77.87
72370;BME280;60343;-32.030;115.880;2023-04-29T12:50:42;102139.59;;;12.73;77.96
72370;BME280;60343;-32.030;115.880;2023-04-29T12:53:24;102142.97;;;12.75;77.62
72370;BME280;60343;-32.030;115.880;2023-04-29T12:55:59;102140.38;;;12.65;78.22
72370;BME280;60343;-32.030;115.880;2023-04-29T12:58:34;102147.06;;;12.61;78.17
72370;BME280;60343;-32.030;115.880;2023-04-29T13:01:08;102144.13;;;12.55;78.68
72370;BME280;60343;-32.030;115.880;2023-04-29T13:03:43;102152.66;;;12.50;79.04
72370;BME280;60343;-32.030;115.880;2023-04-29T13:06:23;102153.78;;;12.47;78.55
72370;BME280;60343;-32.030;115.880;2023-04-29T13:08:57;102151.25;;;12.46;79.03
72370;BME280;60343;-32.030;115.880;2023-04-29T13:11:32;102154.41;;;12.41;79.30
72370;BME280;60343;-32.030;115.880;2023-04-29T13:14:07;102148.47;;;12.38;79.27
72370;BME280;60343;-32.030;115.880;2023-04-29T13:16:41;102161.50;;;12.33;78.83